Terminal Aerodrome Forecast
Issued by NWS

Home | Current Version | Previous Version | Text Only | Print | Product List | Glossary On
Versions: 1 2 3 4 5 6 7 8 9 10 11 12 13 14 15 16 17 18 19 20 21 22 23 24 25 26 27 28
000
FTUS41 KOKX 292320
TAFHPN
TAF
KHPN 292320Z 3000/3024 26005KT P6SM FEW040
     FM300300 VRB03KT P6SM FEW030 SCT250
     FM301400 16006KT P6SM FEW040 SCT150
     FM301800 16009KT P6SM SCT050 BKN120
      AMD NOT SKED=

USA.gov is the U.S. government's official web portal to all federal, state and local government web resources and services.